Terminal Aerodrome Forecast
Issued by NWS Amarillo, TX

Home | Current Version | Previous Version | Text Only | Print | Product List | Glossary On
Versions: 1 2 3 4 5 6 7 8 9 10 11 12 13 14 15 16
382
FTUS44 KAMA 052336
TAFAMA
TAF
KAMA 052336Z 0600/0624 35015G22KT P6SM OVC060
     FM060300 31009KT P6SM SKC
     FM061600 23011KT P6SM SKC=

USA.gov is the U.S. government's official web portal to all federal, state and local government web resources and services.